createdAt,value
2022-12-18T00:02:19.115Z,44.58
2022-12-18T00:04:46.004Z,48.53
2022-12-18T00:07:14.656Z,42.75
2022-12-18T00:09:41.183Z,50.03
2022-12-18T00:14:42.473Z,49.80
2022-12-18T00:17:09.639Z,46.00
2022-12-18T00:19:36.440Z,42.60
2022-12-18T00:22:02.951Z,52.38
2022-12-18T00:24:29.563Z,51.78
2022-12-18T00:26:56.189Z,53.03
2022-12-18T00:29:22.695Z,56.15
2022-12-18T00:31:49.313Z,52.65
2022-12-18T00:34:15.874Z,54.08
2022-12-18T00:36:42.506Z,61.85
2022-12-18T00:39:10.378Z,56.47
2022-12-18T00:41:55.553Z,51.33
2022-12-18T00:44:22.077Z,42.10
2022-12-18T00:46:48.945Z,46.63
2022-12-18T00:49:18.848Z,48.67
2022-12-18T00:54:13.382Z,48.22
2022-12-18T00:56:49.042Z,42.95
2022-12-18T00:59:16.789Z,40.38
2022-12-18T01:01:43.830Z,39.83
2022-12-18T01:04:10.477Z,42.67
2022-12-18T01:06:37.044Z,44.15
2022-12-18T01:09:03.731Z,40.45
2022-12-18T01:11:30.281Z,35.03
2022-12-18T01:13:56.958Z,36.50
2022-12-18T01:16:23.748Z,37.80
2022-12-18T01:18:52.964Z,45.17
2022-12-18T01:21:19.464Z,38.63
2022-12-18T01:23:46.354Z,38.72
2022-12-18T01:26:14.278Z,34.78
2022-12-18T01:28:41.186Z,34.20
2022-12-18T01:31:21.763Z,32.38
2022-12-18T01:33:48.370Z,33.45
2022-12-18T01:36:25.492Z,37.47
2022-12-18T01:38:52.392Z,35.95
2022-12-18T01:41:24.075Z,35.40
2022-12-18T01:43:58.377Z,29.35
2022-12-18T01:46:25.573Z,30.55
2022-12-18T01:48:56.522Z,29.10
2022-12-18T01:51:23.764Z,30.90
2022-12-18T01:53:50.355Z,33.30
2022-12-18T01:56:18.270Z,28.00
2022-12-18T01:58:52.699Z,29.30
2022-12-18T02:01:19.453Z,29.33
2022-12-18T02:03:46.197Z,28.85
2022-12-18T02:06:23.662Z,30.30
2022-12-18T02:09:09.082Z,30.23
2022-12-18T02:11:53.780Z,27.25
2022-12-18T02:14:34.173Z,29.30
2022-12-18T02:17:20.567Z,23.85
2022-12-18T02:19:56.806Z,26.30
2022-12-18T02:22:46.824Z,30.05
2022-12-18T02:25:31.885Z,25.70
2022-12-18T02:28:00.539Z,20.02
2022-12-18T02:30:28.297Z,23.38
2022-12-18T02:32:55.327Z,21.45
2022-12-18T02:35:24.893Z,19.85
2022-12-18T02:37:51.831Z,17.83
2022-12-18T02:40:20.499Z,15.20
2022-12-18T02:42:47.491Z,16.75
2022-12-18T02:45:14.001Z,16.95
2022-12-18T02:47:41.913Z,16.75
2022-12-18T02:50:08.320Z,14.02
2022-12-18T02:52:37.931Z,15.95
2022-12-18T02:55:22.741Z,19.23
2022-12-18T02:57:49.141Z,13.60
2022-12-18T03:00:19.667Z,22.88
2022-12-18T03:02:50.137Z,18.90
2022-12-18T03:05:29.234Z,22.40
2022-12-18T03:08:04.974Z,25.73
2022-12-18T03:10:33.125Z,23.00
2022-12-18T03:13:02.909Z,33.72
2022-12-18T03:15:32.986Z,27.75
2022-12-18T03:18:07.826Z,31.60
2022-12-18T03:20:36.014Z,37.97
2022-12-18T03:23:10.566Z,33.00
2022-12-18T03:25:40.167Z,45.33
2022-12-18T03:28:07.080Z,36.45
2022-12-18T03:30:34.963Z,36.53
2022-12-18T03:33:21.103Z,37.58
2022-12-18T03:35:47.724Z,47.10
2022-12-18T03:38:14.876Z,43.67
2022-12-18T03:40:47.131Z,41.33
2022-12-18T03:43:32.505Z,49.15
2022-12-18T03:46:06.513Z,43.63
2022-12-18T03:48:36.540Z,58.95
2022-12-18T03:51:11.896Z,49.22
2022-12-18T03:53:41.804Z,65.60
2022-12-18T03:56:10.087Z,57.15
2022-12-18T03:58:38.502Z,50.17
2022-12-18T04:01:13.332Z,56.08
2022-12-18T04:03:41.206Z,57.97
2022-12-18T04:06:08.535Z,57.97
2022-12-18T04:08:35.871Z,65.82
2022-12-18T04:11:03.229Z,54.85
2022-12-18T04:13:31.189Z,62.53
2022-12-18T04:15:57.701Z,68.65
2022-12-18T04:18:24.639Z,66.35
2022-12-18T04:20:51.310Z,78.97
2022-12-18T04:23:17.827Z,61.50
2022-12-18T04:25:44.312Z,80.80
2022-12-18T04:28:10.769Z,84.13
2022-12-18T04:30:39.670Z,81.15
2022-12-18T04:33:09.881Z,79.10
2022-12-18T04:35:36.369Z,67.00
2022-12-18T04:38:02.861Z,71.28
2022-12-18T04:40:29.458Z,67.28
2022-12-18T04:42:56.035Z,70.70
2022-12-18T04:45:22.615Z,84.00
2022-12-18T04:47:52.163Z,77.47
2022-12-18T04:50:18.704Z,84.30
2022-12-18T04:52:45.147Z,71.85
2022-12-18T04:55:11.685Z,82.70
2022-12-18T04:57:38.150Z,72.18
2022-12-18T05:00:07.146Z,81.70
2022-12-18T05:02:33.927Z,72.20
2022-12-18T05:05:07.827Z,79.32
2022-12-18T05:07:34.651Z,94.40
2022-12-18T05:10:01.181Z,77.30
2022-12-18T05:12:27.771Z,66.53
2022-12-18T05:14:54.309Z,78.18
2022-12-18T05:17:21.023Z,81.43
2022-12-18T05:19:47.606Z,81.57
2022-12-18T05:22:17.075Z,79.55
2022-12-18T05:24:43.572Z,72.13
2022-12-18T05:27:10.256Z,78.78
2022-12-18T05:29:36.734Z,91.97
2022-12-18T05:32:03.305Z,78.28
2022-12-18T05:34:29.794Z,72.38
2022-12-18T05:36:56.498Z,62.22
2022-12-18T05:39:22.975Z,74.57
2022-12-18T05:41:49.394Z,67.97
2022-12-18T05:44:16.034Z,69.47
2022-12-18T05:46:42.609Z,67.05
2022-12-18T05:49:09.054Z,75.18
2022-12-18T05:51:38.584Z,60.15
2022-12-18T05:54:06.050Z,59.13
2022-12-18T05:56:33.116Z,53.67
2022-12-18T05:58:59.765Z,63.25
2022-12-18T06:01:27.494Z,55.42
2022-12-18T06:03:54.261Z,52.20
2022-12-18T06:06:22.278Z,61.53
2022-12-18T06:08:49.141Z,46.53
2022-12-18T06:11:17.651Z,49.88
2022-12-18T06:13:44.147Z,44.95
2022-12-18T06:16:10.799Z,48.35
2022-12-18T06:18:37.406Z,51.80
2022-12-18T06:21:03.886Z,45.13
2022-12-18T06:23:30.525Z,44.92
2022-12-18T06:25:57.049Z,43.83
2022-12-18T06:28:23.899Z,43.35
2022-12-18T06:30:50.532Z,45.50
2022-12-18T06:33:17.381Z,40.65
2022-12-18T06:35:43.975Z,41.08
2022-12-18T06:38:13.634Z,41.00
2022-12-18T06:40:40.502Z,43.50
2022-12-18T06:43:07.140Z,32.28
2022-12-18T06:45:34.034Z,41.90
2022-12-18T06:48:01.239Z,33.28
2022-12-18T06:50:28.001Z,28.92
2022-12-18T06:52:54.558Z,46.90
2022-12-18T06:55:22.940Z,36.88
2022-12-18T06:57:49.534Z,33.70
2022-12-18T07:00:18.399Z,27.13
2022-12-18T07:02:45.121Z,37.22
2022-12-18T07:05:11.901Z,35.67
2022-12-18T07:07:38.560Z,29.35
2022-12-18T07:10:05.244Z,27.60
2022-12-18T07:12:34.742Z,38.92
2022-12-18T07:15:05.517Z,24.42
2022-12-18T07:17:32.104Z,30.60
2022-12-18T07:19:58.662Z,27.92
2022-12-18T07:22:26.280Z,25.05
2022-12-18T07:24:53.023Z,33.40
2022-12-18T07:27:19.627Z,20.52
2022-12-18T07:29:48.386Z,28.80
2022-12-18T07:32:14.926Z,23.63
2022-12-18T07:34:41.410Z,28.50
2022-12-18T07:37:08.040Z,32.90
2022-12-18T07:39:34.870Z,24.88
2022-12-18T07:42:21.338Z,20.30
2022-12-18T07:44:48.701Z,19.17
2022-12-18T07:47:15.248Z,24.08
2022-12-18T07:49:47.645Z,22.13
2022-12-18T07:52:14.174Z,23.45
2022-12-18T07:54:41.403Z,18.48
2022-12-18T07:57:16.534Z,26.17
2022-12-18T07:59:54.877Z,20.50
2022-12-18T08:02:22.900Z,26.80
2022-12-18T08:04:49.642Z,23.85
2022-12-18T08:07:16.192Z,24.63
2022-12-18T08:09:42.987Z,20.70
2022-12-18T08:12:09.504Z,22.48
2022-12-18T08:14:36.368Z,23.42
2022-12-18T08:17:03.134Z,26.02
2022-12-18T08:19:30.719Z,26.10
2022-12-18T08:21:58.104Z,20.45
2022-12-18T08:24:24.610Z,18.20
2022-12-18T08:27:20.840Z,20.13
2022-12-18T08:35:07.683Z,22.17
2022-12-18T08:46:25.268Z,16.08
2022-12-18T08:48:57.726Z,21.67
2022-12-18T08:51:26.995Z,23.50
2022-12-18T08:53:53.608Z,17.35
2022-12-18T08:56:20.344Z,15.50
2022-12-18T08:58:47.747Z,19.33
2022-12-18T09:01:29.322Z,22.05
2022-12-18T09:03:56.118Z,21.00
2022-12-18T09:06:26.569Z,22.23
2022-12-18T09:08:53.245Z,21.75
2022-12-18T09:11:21.409Z,17.30
2022-12-18T09:13:48.023Z,11.48
2022-12-18T09:16:14.665Z,17.75
2022-12-18T09:18:41.542Z,14.80
2022-12-18T09:21:09.521Z,17.27
2022-12-18T09:23:36.123Z,20.35
2022-12-18T09:26:02.640Z,18.48
2022-12-18T09:28:29.527Z,22.90
2022-12-18T09:30:56.001Z,20.30
2022-12-18T09:33:22.450Z,21.38
2022-12-18T09:35:49.181Z,23.25
2022-12-18T09:38:16.677Z,20.73
2022-12-18T09:40:48.358Z,15.10
2022-12-18T09:43:17.320Z,18.17
2022-12-18T09:45:45.733Z,14.40
2022-12-18T09:48:17.992Z,21.08
2022-12-18T09:50:45.274Z,21.30
2022-12-18T09:53:16.270Z,21.00
2022-12-18T09:55:45.798Z,21.45
2022-12-18T09:58:15.604Z,17.73
2022-12-18T10:00:44.697Z,26.45
2022-12-18T10:03:13.827Z,22.25
2022-12-18T10:05:49.673Z,19.45
2022-12-18T10:08:19.173Z,28.90
2022-12-18T10:10:58.457Z,20.38
2022-12-18T10:13:31.061Z,19.30
2022-12-18T10:15:57.687Z,17.33
2022-12-18T10:18:28.077Z,23.83
2022-12-18T10:20:56.549Z,23.55
2022-12-18T10:23:26.125Z,14.50
2022-12-18T10:26:09.099Z,20.17
2022-12-18T10:28:37.261Z,21.88
2022-12-18T10:31:06.026Z,18.90
2022-12-18T10:33:34.192Z,28.40
2022-12-18T10:36:04.024Z,17.25
2022-12-18T10:38:31.838Z,18.42
2022-12-18T10:40:59.880Z,25.15
2022-12-18T10:43:27.751Z,29.20
2022-12-18T10:46:02.315Z,39.28
2022-12-18T10:48:29.100Z,20.30
2022-12-18T10:51:12.567Z,24.92
2022-12-18T10:53:40.553Z,26.63
2022-12-18T10:56:07.642Z,28.40
2022-12-18T10:58:35.696Z,25.83
2022-12-18T11:01:02.053Z,15.20
2022-12-18T11:03:30.695Z,16.73
2022-12-18T11:06:25.293Z,21.92
2022-12-18T11:09:03.664Z,19.17
2022-12-18T11:11:32.874Z,20.80
2022-12-18T11:14:02.352Z,20.05
2022-12-18T11:16:30.060Z,17.75
2022-12-18T11:19:00.991Z,14.35
2022-12-18T11:23:58.963Z,17.48
2022-12-18T11:26:34.860Z,17.50
2022-12-18T11:29:11.980Z,17.27
2022-12-18T11:31:38.703Z,20.95
2022-12-18T11:34:29.165Z,25.88
2022-12-18T11:36:56.201Z,17.48
2022-12-18T11:39:28.926Z,28.25
2022-12-18T11:42:12.484Z,16.17
2022-12-18T11:44:48.170Z,18.75
2022-12-18T11:47:20.288Z,16.85
2022-12-18T11:49:50.936Z,10.77
2022-12-18T11:52:20.588Z,10.80
2022-12-18T11:54:49.041Z,15.38
2022-12-18T11:57:21.524Z,10.77
2022-12-18T12:00:02.411Z,15.52
2022-12-18T12:02:39.267Z,10.35
2022-12-18T12:05:21.198Z,12.43
2022-12-18T12:08:42.239Z,13.95
2022-12-18T12:11:07.222Z,13.90
2022-12-18T12:13:45.715Z,13.57
2022-12-18T12:16:35.134Z,18.10
2022-12-18T12:19:21.199Z,11.63
2022-12-18T12:21:51.225Z,11.05
2022-12-18T12:24:40.999Z,14.07
2022-12-18T12:27:10.222Z,13.43
2022-12-18T12:29:52.102Z,15.65
2022-12-18T12:32:18.473Z,11.95
2022-12-18T12:35:09.297Z,15.45
2022-12-18T12:37:49.986Z,14.77
2022-12-18T12:40:49.083Z,13.75
2022-12-18T12:43:27.033Z,14.70
2022-12-18T12:45:56.257Z,10.75
2022-12-18T12:48:25.492Z,11.50
2022-12-18T12:50:52.095Z,19.08
2022-12-18T12:53:24.578Z,18.80
2022-12-18T12:55:51.531Z,9.98
2022-12-18T12:58:27.584Z,18.25
2022-12-18T13:00:58.227Z,14.95
2022-12-18T13:03:44.008Z,17.60
2022-12-18T13:06:24.563Z,15.07
2022-12-18T13:08:58.780Z,23.02
2022-12-18T13:11:48.891Z,14.90
2022-12-18T13:14:26.060Z,13.02
2022-12-18T13:16:53.302Z,22.95
2022-12-18T13:19:24.204Z,23.23
2022-12-18T13:24:23.989Z,17.27
2022-12-18T13:26:51.151Z,15.13
2022-12-18T13:29:36.762Z,11.35
2022-12-18T13:32:03.364Z,16.38
2022-12-18T13:34:32.072Z,18.30
2022-12-18T13:37:19.860Z,11.95
2022-12-18T13:39:46.472Z,20.83
2022-12-18T13:42:33.886Z,14.77
2022-12-18T13:45:00.487Z,15.52
2022-12-18T13:47:32.226Z,14.70
2022-12-18T13:49:59.013Z,9.45
2022-12-18T13:52:26.575Z,16.27
2022-12-18T13:54:56.728Z,13.20
2022-12-18T13:57:31.295Z,13.90
2022-12-18T13:59:58.941Z,14.55
2022-12-18T14:02:26.746Z,12.88
2022-12-18T14:04:54.332Z,21.17
2022-12-18T14:07:23.114Z,19.95
2022-12-18T14:09:55.640Z,14.48
2022-12-18T14:12:49.742Z,13.07
2022-12-18T14:15:25.202Z,15.15
2022-12-18T14:18:10.549Z,12.73
2022-12-18T14:20:37.972Z,15.70
2022-12-18T14:23:04.410Z,15.07
2022-12-18T14:25:31.639Z,10.88
2022-12-18T14:28:02.086Z,13.50
2022-12-18T14:30:33.211Z,14.10
2022-12-18T14:33:08.908Z,13.65
2022-12-18T14:35:36.949Z,11.32
2022-12-18T14:38:32.808Z,10.38
2022-12-18T14:41:03.061Z,10.48
2022-12-18T14:43:30.951Z,18.60
2022-12-18T14:45:57.482Z,10.18
2022-12-18T14:48:33.144Z,12.80
2022-12-18T14:51:06.879Z,13.82
2022-12-18T14:53:33.370Z,16.73
2022-12-18T14:55:59.853Z,13.98
2022-12-18T14:58:26.591Z,10.45
2022-12-18T15:00:58.014Z,18.42
2022-12-18T15:03:24.622Z,12.65
2022-12-18T15:05:52.763Z,10.10
2022-12-18T15:08:30.151Z,13.23
2022-12-18T15:10:57.969Z,12.35
2022-12-18T15:13:25.669Z,15.32
2022-12-18T15:15:53.446Z,14.85
2022-12-18T15:18:22.162Z,15.40
2022-12-18T15:20:56.280Z,20.73
2022-12-18T15:23:27.568Z,10.60
2022-12-18T15:25:58.698Z,11.32
2022-12-18T15:28:30.085Z,7.53
2022-12-18T15:31:26.194Z,15.32
2022-12-18T15:33:53.813Z,12.88
2022-12-18T15:36:26.498Z,12.95
2022-12-18T15:38:55.125Z,14.38
2022-12-18T15:41:25.170Z,14.38
2022-12-18T15:43:52.590Z,19.25
2022-12-18T15:46:21.037Z,15.52
2022-12-18T15:48:48.803Z,15.88
2022-12-18T15:51:21.257Z,14.32
2022-12-18T15:53:48.887Z,14.43
2022-12-18T15:56:34.810Z,14.90
2022-12-18T15:59:02.173Z,23.45
2022-12-18T16:01:32.026Z,14.77
2022-12-18T16:03:58.581Z,17.88
2022-12-18T16:06:25.030Z,16.55
2022-12-18T16:08:51.560Z,13.00
2022-12-18T16:11:44.169Z,20.60
2022-12-18T16:14:37.328Z,23.83
2022-12-18T16:17:06.437Z,23.95
2022-12-18T16:19:33.166Z,21.30
2022-12-18T16:22:02.342Z,28.35
2022-12-18T16:24:29.742Z,32.15
2022-12-18T16:26:59.378Z,28.00
2022-12-18T16:29:28.408Z,28.33
2022-12-18T16:31:55.799Z,42.72
2022-12-18T16:34:26.046Z,33.00
2022-12-18T16:37:04.838Z,42.35
2022-12-18T16:39:33.093Z,46.95
2022-12-18T16:42:00.084Z,46.13
2022-12-18T16:44:28.496Z,52.50
2022-12-18T16:46:55.046Z,50.25
2022-12-18T16:49:22.486Z,59.42
2022-12-18T16:51:49.005Z,50.65
2022-12-18T16:54:19.614Z,54.75
2022-12-18T16:59:24.212Z,52.90
2022-12-18T17:01:50.916Z,65.72
2022-12-18T17:04:19.860Z,58.42
2022-12-18T17:06:52.089Z,68.13
2022-12-18T17:09:23.190Z,58.63
2022-12-18T17:11:49.715Z,50.42
2022-12-18T17:14:17.338Z,57.40
2022-12-18T17:16:43.899Z,71.35
2022-12-18T17:19:17.034Z,53.67
2022-12-18T17:21:45.005Z,61.67
2022-12-18T17:24:11.922Z,66.78
2022-12-18T17:26:39.975Z,77.93
2022-12-18T17:29:06.727Z,70.50
2022-12-18T17:31:36.353Z,67.80
2022-12-18T17:34:03.213Z,69.32
2022-12-18T17:36:33.299Z,82.97
2022-12-18T17:39:01.279Z,89.35
2022-12-18T17:41:30.580Z,72.65
2022-12-18T17:44:00.344Z,60.33
2022-12-18T17:46:28.371Z,68.75
2022-12-18T17:48:58.863Z,67.90
2022-12-18T17:51:25.777Z,78.63
2022-12-18T17:53:52.455Z,81.57
2022-12-18T17:56:20.100Z,70.40
2022-12-18T17:58:50.494Z,82.80
2022-12-18T18:01:18.683Z,84.05
2022-12-18T18:03:45.690Z,75.63
2022-12-18T18:06:15.324Z,87.22
2022-12-18T18:08:41.887Z,81.05
2022-12-18T18:11:29.529Z,88.68
2022-12-18T18:14:02.124Z,88.32
2022-12-18T18:16:34.027Z,93.03
2022-12-18T18:19:01.516Z,89.22
2022-12-18T18:21:28.568Z,91.32
2022-12-18T18:23:59.078Z,94.35
2022-12-18T18:26:33.167Z,85.30
2022-12-18T18:29:00.136Z,92.22
2022-12-18T18:31:29.744Z,104.55
2022-12-18T18:33:56.519Z,109.97
2022-12-18T18:36:23.256Z,96.72
2022-12-18T18:38:52.539Z,87.93
2022-12-18T18:41:23.744Z,99.03
2022-12-18T18:43:54.828Z,100.05
2022-12-18T18:46:23.987Z,79.88
2022-12-18T18:48:59.163Z,92.03
2022-12-18T18:51:34.522Z,103.90
2022-12-18T18:54:01.431Z,87.50
2022-12-18T18:56:56.444Z,103.50
2022-12-18T18:59:14.408Z,100.63
2022-12-18T19:01:41.119Z,98.78
2022-12-18T19:04:07.937Z,115.10
2022-12-18T19:06:36.832Z,86.72
2022-12-18T19:09:04.914Z,94.78
2022-12-18T19:11:51.530Z,109.63
2022-12-18T19:14:19.735Z,110.78
2022-12-18T19:16:46.392Z,122.07
2022-12-18T19:19:15.206Z,126.28
2022-12-18T19:21:41.612Z,128.18
2022-12-18T19:24:09.319Z,115.38
2022-12-18T19:26:37.736Z,112.20
2022-12-18T19:29:07.580Z,104.13
2022-12-18T19:31:36.502Z,128.63
2022-12-18T19:34:04.090Z,113.63
2022-12-18T19:36:31.102Z,101.97
2022-12-18T19:39:00.631Z,111.90
2022-12-18T19:41:37.680Z,102.88
2022-12-18T19:44:08.046Z,105.50
2022-12-18T19:49:07.295Z,111.72
2022-12-18T19:51:34.064Z,117.43
2022-12-18T19:54:01.792Z,110.28
2022-12-18T19:56:30.360Z,107.25
2022-12-18T19:58:56.880Z,113.85
2022-12-18T20:01:24.423Z,100.70
2022-12-18T20:03:52.496Z,104.20
2022-12-18T20:06:24.891Z,114.93
2022-12-18T20:08:51.777Z,100.55
2022-12-18T20:11:20.485Z,103.20
2022-12-18T20:13:46.956Z,93.25
2022-12-18T20:16:16.522Z,87.38
2022-12-18T20:18:43.457Z,105.53
2022-12-18T20:21:13.891Z,90.22
2022-12-18T20:23:41.019Z,94.17
2022-12-18T20:26:08.581Z,98.50
2022-12-18T20:28:35.685Z,76.03
2022-12-18T20:31:03.251Z,77.63
2022-12-18T20:33:30.142Z,93.88
2022-12-18T20:36:03.633Z,64.03
2022-12-18T20:38:30.568Z,56.67
2022-12-18T20:41:01.379Z,54.70
2022-12-18T20:43:31.367Z,55.47
2022-12-18T20:46:02.285Z,54.70
2022-12-18T20:50:59.301Z,43.72
2022-12-18T20:53:32.149Z,41.67
2022-12-18T20:55:58.661Z,32.67
2022-12-18T20:58:25.133Z,35.72
2022-12-18T21:01:02.233Z,37.83
2022-12-18T21:03:30.967Z,41.47
2022-12-18T21:05:57.433Z,32.20
2022-12-18T21:08:23.917Z,44.47
2022-12-18T21:10:50.641Z,29.48
2022-12-18T21:13:17.352Z,28.10
2022-12-18T21:15:45.077Z,24.83
2022-12-18T21:18:11.699Z,27.95
2022-12-18T21:20:38.287Z,17.35
2022-12-18T21:23:12.102Z,20.77
2022-12-18T21:25:43.411Z,23.88
2022-12-18T21:28:09.900Z,22.17
2022-12-18T21:30:36.829Z,19.52
2022-12-18T21:33:03.617Z,17.00
2022-12-18T21:35:32.051Z,16.65
2022-12-18T21:37:58.681Z,15.10
2022-12-18T21:40:25.318Z,16.77
2022-12-18T21:43:10.433Z,14.70
2022-12-18T21:45:40.513Z,16.95
2022-12-18T21:48:07.258Z,19.25
2022-12-18T21:50:33.730Z,21.10
2022-12-18T21:53:01.205Z,12.73
2022-12-18T21:55:27.639Z,20.45
2022-12-18T21:57:55.992Z,16.60
2022-12-18T22:00:22.552Z,13.27
2022-12-18T22:03:04.900Z,18.23
2022-12-18T22:05:35.798Z,17.52
2022-12-18T22:08:02.253Z,15.65
2022-12-18T22:10:29.024Z,18.73
2022-12-18T22:12:55.613Z,14.23
2022-12-18T22:18:07.145Z,18.27
2022-12-18T22:20:36.897Z,12.95
2022-12-18T22:23:06.154Z,16.35
2022-12-18T22:25:33.274Z,20.35
2022-12-18T22:28:25.558Z,13.18
2022-12-18T22:30:59.476Z,15.57
2022-12-18T22:33:26.510Z,11.20
2022-12-18T22:35:53.271Z,13.55
2022-12-18T22:38:19.773Z,16.45
2022-12-18T22:40:46.484Z,15.00
2022-12-18T22:43:12.942Z,13.50
2022-12-18T22:45:39.424Z,14.23
2022-12-18T22:48:06.318Z,14.75
2022-12-18T22:50:33.808Z,15.10
2022-12-18T22:53:01.317Z,12.13
2022-12-18T22:55:27.903Z,18.73
2022-12-18T22:57:54.339Z,14.77
2022-12-18T23:00:24.596Z,14.85
2022-12-18T23:02:56.052Z,11.68
2022-12-18T23:05:26.191Z,13.20
2022-12-18T23:07:52.741Z,9.38
2022-12-18T23:10:19.252Z,15.13
2022-12-18T23:12:45.823Z,18.17
2022-12-18T23:15:12.744Z,13.70
2022-12-18T23:17:42.465Z,13.32
2022-12-18T23:20:09.146Z,15.65
2022-12-18T23:22:35.612Z,13.00
2022-12-18T23:25:02.060Z,9.63
2022-12-18T23:27:28.631Z,15.50
2022-12-18T23:29:55.430Z,17.58
2022-12-18T23:32:23.904Z,11.38
2022-12-18T23:34:50.318Z,15.25
2022-12-18T23:37:35.269Z,12.55
2022-12-18T23:40:05.180Z,13.98
2022-12-18T23:42:31.583Z,16.27
2022-12-18T23:44:58.106Z,11.43
2022-12-18T23:47:26.429Z,9.82
2022-12-18T23:49:53.084Z,11.80
2022-12-18T23:52:19.823Z,13.20
2022-12-18T23:54:46.389Z,15.10
2022-12-18T23:57:12.946Z,15.63
2022-12-18T23:59:39.572Z,12.18
